Time;durP1;ratioP1;P1;durP2;ratioP2;P2;SDS_P1;SDS_P2;PMS_P1;PMS_P2;Temp;Humidity;BMP_temperature;BMP_pressure;BME280_temperature;BME280_humidity;BME280_pressure;Samples;Min_cycle;Max_cycle;Signal;HPM_P1;HPM_P2
2022/10/29 00:01:10;;;;;;;34.13;18.40;;;;;;;12.95;100.00;75818.25;5072880;28;20025;-60
2022/10/29 00:03:35;;;;;;;38.95;22.17;;;;;;;12.86;100.00;76154.63;5071453;28;20102;-60
2022/10/29 00:06:04;;;;;;;35.67;19.55;;;;;;;12.81;100.00;76148.53;5074083;28;20053;-60
2022/10/29 00:08:32;;;;;;;41.67;20.08;;;;;;;12.72;100.00;76832.06;5070990;28;20514;-60
2022/10/29 00:11:09;;;;;;;41.45;20.58;;;;;;;12.63;100.00;76822.19;5072933;28;20020;-61
2022/10/29 00:13:35;;;;;;;37.13;19.33;;;;;;;12.55;100.00;76812.31;5071526;28;20134;-58
2022/10/29 00:16:06;;;;;;;35.92;20.70;;;;;;;12.62;100.00;76473.72;5076674;28;20050;-58
2022/10/29 00:18:31;;;;;;;34.83;19.98;;;;;;;12.62;100.00;75779.31;5090816;28;20046;-58
2022/10/29 00:21:05;;;;;;;44.17;21.80;;;;;;;12.61;100.00;75430.97;5092197;28;20085;-58
2022/10/29 00:23:31;;;;;;;39.47;21.13;;;;;;;12.66;100.00;74742.75;5079434;28;20037;-58
2022/10/29 00:25:58;;;;;;;44.63;22.25;;;;;;;12.76;100.00;73712.22;5075671;28;20031;-58
2022/10/29 00:28:23;;;;;;;35.10;18.13;;;;;;;12.77;100.00;73366.34;5091426;28;20060;-59
2022/10/29 00:30:49;;;;;;;35.45;18.08;;;;;;;12.74;100.00;88661.06;5083905;28;20059;-58
2022/10/29 00:33:17;;;;;;;29.58;16.17;;;;;;;12.70;100.00;75789.06;5071156;28;20500;-58
2022/10/29 00:35:42;;;;;;;32.08;19.23;;;;;;;12.63;100.00;74739.13;5073576;28;20033;-58
2022/10/29 00:38:08;;;;;;;31.30;17.30;;;;;;;12.61;100.00;74042.06;5090671;28;20057;-58
2022/10/29 00:40:36;;;;;;;39.55;21.27;;;;;;;12.63;100.00;73351.03;5092511;28;20020;-58
2022/10/29 00:43:17;;;;;;;47.17;20.80;;;;;;;12.64;100.00;72658.31;5090397;28;20067;-59
2022/10/29 00:45:54;;;;;;;38.50;21.27;;;;;;;12.60;100.00;71959.34;5090942;28;20024;-59
2022/10/29 00:48:22;;;;;;;43.50;21.20;;;;;;;12.65;100.00;71272.03;5090072;28;20519;-59
2022/10/29 00:50:48;;;;;;;49.55;22.83;;;;;;;12.55;100.00;71260.63;5090578;28;20024;-59
2022/10/29 00:53:17;;;;;;;31.17;20.10;;;;;;;12.56;100.00;71261.22;5090515;28;20060;-59
2022/10/29 00:55:43;;;;;;;41.85;20.58;;;;;;;12.55;100.00;70913.91;5086486;28;20028;-59
2022/10/29 00:58:09;;;;;;;44.90;21.55;;;;;;;12.49;100.00;71253.78;5070138;28;20043;-59
2022/10/29 01:00:34;;;;;;;34.88;20.55;;;;;;;12.43;100.00;71593.63;5071969;28;20495;-59
2022/10/29 01:03:00;;;;;;;50.75;22.80;;;;;;;12.37;100.00;71587.31;5070445;28;20040;-59
2022/10/29 01:05:27;;;;;;;36.75;21.27;;;;;;;12.35;100.00;71585.59;5076782;28;20457;-59
2022/10/29 01:07:52;;;;;;;37.13;22.48;;;;;;;12.36;100.00;71586.19;5070314;28;20128;-59
2022/10/29 01:10:30;;;;;;;51.30;21.95;;;;;;;12.36;100.00;71240.09;5071486;28;20392;-59
2022/10/29 01:13:05;;;;;;;41.78;20.83;;;;;;;12.35;100.00;70892.31;5070194;28;20123;-59
2022/10/29 01:15:39;;;;;;;36.28;19.55;;;;;;;12.32;100.00;70542.34;5074331;28;20020;-59
2022/10/29 01:18:12;;;;;;;38.13;20.02;;;;;;;12.31;100.00;70194.69;5089730;28;20496;-59
2022/10/29 01:20:52;;;;;;;41.85;19.13;;;;;;;12.32;100.00;69849.31;5071678;28;20020;-59
2022/10/29 01:23:41;;;;;;;37.95;17.40;;;;;;;12.25;100.00;69841.47;5069527;28;20040;-59
2022/10/29 01:26:25;;;;;;;;;;;;;;;12.15;100.00;70523.16;5078761;28;20062;-60
2022/10/29 01:28:56;;;;;;;39.00;17.20;;;;;;;12.10;100.00;70863.97;5089586;28;19916;-59
2022/10/29 01:31:32;;;;;;;57.17;18.60;;;;;;;12.00;100.00;71893.09;5088178;28;20528;-59
2022/10/29 01:34:13;;;;;;;24.15;16.27;;;;;;;11.90;100.00;72574.47;5089000;28;20052;-59
2022/10/29 01:36:49;;;;;;;40.22;15.73;;;;;;;11.79;100.00;73254.59;5077473;28;20075;-59
2022/10/29 01:39:36;;;;;;;56.75;15.10;;;;;;;11.71;100.00;73592.81;5070890;28;20016;-59
2022/10/29 01:42:25;;;;;;;43.95;11.98;;;;;;;11.61;100.00;74273.91;5068936;28;20703;-59
2022/10/29 01:44:59;;;;;;;21.10;14.63;;;;;;;11.52;100.00;74956.09;5080971;28;20085;-59
2022/10/29 01:47:30;;;;;;;22.20;12.93;;;;;;;11.50;100.00;74953.72;5070723;28;20044;-61
2022/10/29 01:50:00;;;;;;;41.85;17.25;;;;;;;11.49;100.00;74952.50;5084397;28;20160;-59
2022/10/29 01:52:28;;;;;;;36.17;18.05;;;;;;;11.46;100.00;75295.34;5090011;28;20044;-59
2022/10/29 01:54:53;;;;;;;74.93;19.98;;;;;;;11.47;100.00;75296.56;5090760;28;20034;-59
2022/10/29 01:57:45;;;;;;;51.78;15.30;;;;;;;11.45;100.00;75294.13;5071842;28;20125;-59
2022/10/29 02:00:16;;;;;;;246.55;27.17;;;;;;;11.39;100.00;75287.50;5067214;28;20045;-60
2022/10/29 02:03:14;;;;;;;163.88;13.15;;;;;;;11.33;100.00;75627.28;5089211;28;20036;-60
2022/10/29 02:06:10;;;;;;;17.88;11.98;;;;;;;11.18;100.00;76301.81;5087542;28;20029;-60
2022/10/29 02:08:53;;;;;;;88.40;25.50;;;;;;;11.14;100.00;78029.25;5069468;28;20032;-61
2022/10/29 02:11:26;;;;;;;40.22;17.60;;;;;;;11.12;100.00;77680.84;5075070;28;20036;-60
2022/10/29 02:13:58;;;;;;;365.77;26.10;;;;;;;11.07;100.00;77328.75;5079199;28;20035;-61
2022/10/29 02:16:25;;;;;;;98.93;15.55;;;;;;;11.01;100.00;77667.72;5078430;28;20085;-60
2022/10/29 02:18:51;;;;;;;20.13;14.75;;;;;;;10.96;100.00;77661.47;5090195;28;20026;-60
2022/10/29 02:21:18;;;;;;;78.30;12.13;;;;;;;10.94;100.00;77658.97;5089492;28;20036;-60
2022/10/29 02:23:43;;;;;;;163.20;9.73;;;;;;;10.87;100.00;77996.59;5090736;28;20460;-60
2022/10/29 02:26:09;;;;;;;82.43;9.18;;;;;;;10.76;100.00;79023.19;5083860;28;20034;-61
2022/10/29 02:28:35;;;;;;;58.53;17.23;;;;;;;10.63;100.00;79700.06;5069511;28;20040;-61
2022/10/29 02:31:00;;;;;;;69.05;21.42;;;;;;;10.70;100.00;79361.97;5070051;28;20053;-60
2022/10/29 02:33:25;;;;;;;208.07;23.35;;;;;;;10.74;100.00;78674.25;5068873;28;20047;-60
2022/10/29 02:35:51;;;;;;;197.98;21.05;;;;;;;10.79;100.00;78334.19;5074549;28;20031;-60
2022/10/29 02:38:16;;;;;;;100.22;19.65;;;;;;;10.78;100.00;78679.31;5088846;28;20413;-61
2022/10/29 02:40:42;;;;;;;55.83;17.77;;;;;;;10.77;100.00;78678.06;5091218;28;20040;-60
2022/10/29 02:43:07;;;;;;;65.35;29.80;;;;;;;10.82;100.00;78336.72;5075977;28;20040;-60
2022/10/29 02:45:32;;;;;;;59.20;30.17;;;;;;;10.88;100.00;77651.47;5075610;28;20024;-60
2022/10/29 02:47:58;;;;;;;37.65;23.20;;;;;;;10.98;100.00;76624.84;5092813;28;20086;-60
2022/10/29 02:50:23;;;;;;;55.30;29.38;;;;;;;11.06;100.00;75595.66;5076312;28;20052;-59
2022/10/29 02:52:48;;;;;;;70.65;32.92;;;;;;;11.14;100.00;74565.28;5072846;28;20392;-59
2022/10/29 02:55:14;;;;;;;56.25;28.30;;;;;;;11.18;100.00;73877.59;5085619;28;20080;-59
2022/10/29 02:57:42;;;;;;;308.27;42.00;;;;;;;11.20;100.00;72841.44;5072873;28;20070;-60
2022/10/29 03:00:08;;;;;;;142.52;32.95;;;;;;;11.29;100.00;72505.22;5073941;28;20028;-60
2022/10/29 03:02:33;;;;;;;44.08;22.50;;;;;;;11.26;100.00;72502.31;5072357;28;20040;-60
2022/10/29 03:04:58;;;;;;;55.00;30.85;;;;;;;11.32;100.00;72162.56;5074003;28;20024;-58
2022/10/29 03:07:24;;;;;;;63.35;32.85;;;;;;;11.41;100.00;70789.00;5092605;28;20495;-60
2022/10/29 03:09:49;;;;;;;82.50;36.97;;;;;;;11.60;100.00;69078.91;5092044;28;20168;-60
2022/10/29 03:12:14;;;;;;;52.83;29.50;;;;;;;11.68;100.00;67703.72;5072365;28;20043;-60
2022/10/29 03:14:40;;;;;;;57.33;28.02;;;;;;;11.71;100.00;67015.09;5085335;28;20080;-60
2022/10/29 03:17:05;;;;;;;69.30;36.95;;;;;;;11.74;100.00;66326.50;5074546;28;20558;-60
2022/10/29 03:19:31;;;;;;;61.15;32.33;;;;;;;11.78;100.00;65637.97;5073655;28;20408;-60
2022/10/29 03:21:57;;;;;;;60.78;31.95;;;;;;;11.78;100.00;65292.16;5072180;28;20048;-61
2022/10/29 03:24:22;;;;;;;57.65;26.92;;;;;;;11.72;100.00;65286.94;5086051;28;20404;-62
2022/10/29 03:26:47;;;;;;;41.40;23.10;;;;;;;11.64;100.00;65624.34;5077892;28;20109;-62
2022/10/29 03:29:13;;;;;;;60.08;29.10;;;;;;;11.54;100.00;65613.84;5073332;28;20020;-62
2022/10/29 03:31:38;;;;;;;63.75;28.65;;;;;;;11.53;100.00;65958.50;5071521;28;20063;-62
2022/10/29 03:34:03;;;;;;;54.22;28.85;;;;;;;11.52;100.00;68724.09;5073477;28;20025;-62
2022/10/29 03:36:29;;;;;;;55.40;29.55;;;;;;;11.46;100.00;70102.00;5083145;28;20024;-61
2022/10/29 03:38:54;;;;;;;63.88;31.35;;;;;;;11.49;100.00;68029.00;5093684;28;20024;-61
2022/10/29 03:41:19;;;;;;;44.55;23.70;;;;;;;11.48;100.00;66990.44;5092006;28;20502;-60
2022/10/29 03:43:45;;;;;;;40.28;23.67;;;;;;;11.46;100.00;66642.53;5093337;28;20024;-60
2022/10/29 03:46:10;;;;;;;36.47;21.88;;;;;;;11.46;100.00;66296.81;5084212;28;20401;-60
2022/10/29 03:48:35;;;;;;;62.03;28.35;;;;;;;11.47;100.00;65952.19;5071894;28;20041;-60
2022/10/29 03:51:06;;;;;;;62.28;27.92;;;;;;;11.50;100.00;65609.66;5079124;28;20020;-60
2022/10/29 03:53:34;;;;;;;62.72;27.73;;;;;;;11.46;100.00;65260.34;5090731;28;20082;-60
2022/10/29 03:55:59;;;;;;;57.30;28.05;;;;;;;11.43;100.00;64912.13;5085192;28;20062;-60
2022/10/29 03:58:25;;;;;;;103.82;18.92;;;;;;;11.36;100.00;64904.88;5071592;28;20048;-60
2022/10/29 04:01:02;;;;;;;56.38;27.50;;;;;;;11.28;100.00;64896.59;5072835;28;20039;-60
2022/10/29 04:03:29;;;;;;;33.90;21.70;;;;;;;11.23;100.00;65237.41;5071393;28;20064;-60
2022/10/29 04:05:55;;;;;;;56.85;25.08;;;;;;;11.18;100.00;65231.69;5074511;28;20029;-60
2022/10/29 04:08:21;;;;;;;57.03;27.73;;;;;;;11.16;100.00;65229.59;5070971;28;20033;-61
2022/10/29 04:10:48;;;;;;;58.35;28.30;;;;;;;11.18;100.00;64886.25;5073099;28;20039;-61
2022/10/29 04:13:14;;;;;;;191.23;24.73;;;;;;;11.18;100.00;64886.25;5071209;28;20036;-60
2022/10/29 04:15:39;;;;;;;50.20;24.30;;;;;;;11.26;100.00;64203.63;5076584;28;20028;-58
2022/10/29 04:18:05;;;;;;;46.42;20.27;;;;;;;11.22;100.00;64544.94;5091146;28;20051;-57
2022/10/29 04:20:31;;;;;;;31.65;17.45;;;;;;;11.11;100.00;64880.03;5091296;28;20022;-57
2022/10/29 04:22:56;;;;;;;34.47;18.70;;;;;;;11.00;100.00;65559.34;5090379;28;20051;-57
2022/10/29 04:25:21;;;;;;;31.50;19.25;;;;;;;10.92;100.00;65551.50;5090905;28;20027;-57
2022/10/29 04:27:47;;;;;;;29.25;17.08;;;;;;;10.86;100.00;65890.00;5071646;28;20507;-57
2022/10/29 04:30:12;;;;;;;26.48;17.38;;;;;;;10.77;100.00;66226.88;5092361;28;20031;-57
2022/10/29 04:32:37;;;;;;;26.20;16.67;;;;;;;10.73;100.00;66222.66;5090953;28;20055;-59
2022/10/29 04:35:03;;;;;;;43.83;22.30;;;;;;;10.71;100.00;66565.31;5089573;28;20070;-60
2022/10/29 04:37:29;;;;;;;34.72;19.63;;;;;;;10.76;100.00;65880.50;5079252;28;20135;-58
2022/10/29 04:39:54;;;;;;;33.00;18.65;;;;;;;10.76;100.00;65880.50;5081258;28;20093;-59
2022/10/29 04:42:20;;;;;;;38.47;19.48;;;;;;;10.73;100.00;65876.81;5088938;28;20040;-61
2022/10/29 04:44:45;;;;;;;33.10;19.20;;;;;;;10.73;100.00;65877.38;5086843;28;20021;-57
2022/10/29 04:47:11;;;;;;;43.40;19.02;;;;;;;10.72;100.00;65876.31;5078466;28;20036;-57
2022/10/29 04:49:36;;;;;;;28.38;16.83;;;;;;;10.71;100.00;65529.50;5092430;28;20031;-67
2022/10/29 04:52:01;;;;;;;27.50;17.83;;;;;;;10.70;100.00;65528.94;5071349;28;20045;-58
2022/10/29 04:54:27;;;;;;;32.70;18.10;;;;;;;10.73;100.00;65186.34;5073736;28;20013;-58
2022/10/29 04:56:52;;;;;;;24.33;16.90;;;;;;;10.73;100.00;65186.88;5076832;28;20044;-58
2022/10/29 04:59:17;;;;;;;23.50;14.27;;;;;;;10.72;100.00;65185.31;5074122;28;20028;-58
2022/10/29 05:01:43;;;;;;;25.15;14.88;;;;;;;10.69;100.00;65182.69;5072878;28;20404;-58
2022/10/29 05:04:08;;;;;;;28.88;17.73;;;;;;;10.69;100.00;65182.69;5073176;28;20016;-58
2022/10/29 05:06:33;;;;;;;29.42;16.13;;;;;;;10.70;100.00;64838.06;5083949;28;20044;-57
2022/10/29 05:08:59;;;;;;;31.55;17.83;;;;;;;10.69;100.00;64837.53;5090267;28;20020;-58
2022/10/29 05:11:24;;;;;;;28.45;17.60;;;;;;;10.67;100.00;64835.47;5090095;28;20172;-59
2022/10/29 05:13:49;;;;;;;30.42;20.88;;;;;;;10.70;100.00;64838.56;5083270;28;20020;-57
2022/10/29 05:16:15;;;;;;;38.15;21.92;;;;;;;10.72;100.00;64840.63;5078330;28;20036;-58
2022/10/29 05:18:40;;;;;;;33.88;19.63;;;;;;;10.73;100.00;64841.16;5081379;28;20377;-56
2022/10/29 05:21:06;;;;;;;41.15;22.52;;;;;;;10.69;100.00;64837.00;5075055;28;20055;-57
2022/10/29 05:23:31;;;;;;;33.05;19.80;;;;;;;10.73;100.00;65186.88;5069480;28;20044;-57
2022/10/29 05:25:56;;;;;;;43.58;24.50;;;;;;;10.70;100.00;64493.41;5087071;28;20028;-57
2022/10/29 05:28:23;;;;;;;36.03;21.83;;;;;;;10.73;100.00;64841.69;5085760;28;20032;-57
2022/10/29 05:30:50;;;;;;;34.88;19.08;;;;;;;10.72;100.00;68639.41;5071148;28;20377;-57
2022/10/29 05:33:18;;;;;;;36.45;22.52;;;;;;;10.72;100.00;67257.63;5083813;28;20044;-57
2022/10/29 05:35:43;;;;;;;44.00;22.65;;;;;;;10.72;100.00;65531.06;5087835;28;20811;-57
2022/10/29 05:38:10;;;;;;;37.72;22.17;;;;;;;10.72;100.00;65185.31;5082708;28;20036;-57
2022/10/29 05:40:35;;;;;;;24.80;18.38;;;;;;;10.71;100.00;64839.59;5089262;28;20126;-58
2022/10/29 05:43:01;;;;;;;39.70;22.05;;;;;;;10.73;100.00;64496.50;5077504;28;20514;-57
2022/10/29 05:45:26;;;;;;;38.05;23.13;;;;;;;10.71;100.00;64149.31;5072348;28;20036;-57
2022/10/29 05:47:59;;;;;;;432.55;45.70;;;;;;;10.72;100.00;64150.34;5081289;28;20040;-57
2022/10/29 05:50:24;;;;;;;84.43;15.68;;;;;;;10.68;100.00;64146.25;5086050;28;20033;-57
2022/10/29 05:52:55;;;;;;;34.85;15.82;;;;;;;10.57;100.00;64480.00;5079307;28;20040;-57
2022/10/29 05:55:20;;;;;;;22.48;16.65;;;;;;;10.46;100.00;65159.78;5069349;28;20027;-57
2022/10/29 05:57:45;;;;;;;80.53;15.23;;;;;;;10.44;100.00;65157.72;5084798;28;20040;-57
2022/10/29 06:00:11;;;;;;;20.20;11.52;;;;;;;10.39;100.00;65497.53;5071928;28;20043;-57
2022/10/29 06:02:36;;;;;;;42.15;18.98;;;;;;;10.34;100.00;65837.31;5087373;28;20671;-57
2022/10/29 06:05:01;;;;;;;46.55;15.60;;;;;;;10.32;100.00;65835.75;5077963;28;20051;-57
2022/10/29 06:07:27;;;;;;;21.17;12.85;;;;;;;10.28;100.00;66521.09;5080983;28;20063;-57
2022/10/29 06:09:52;;;;;;;22.70;15.05;;;;;;;10.09;100.00;66846.38;5069392;28;20025;-58
2022/10/29 06:12:17;;;;;;;97.75;19.00;;;;;;;10.20;100.00;66857.63;5084543;28;20105;-57
2022/10/29 06:14:43;;;;;;;25.65;16.83;;;;;;;10.22;100.00;66859.78;5080299;28;20598;-57
2022/10/29 06:17:08;;;;;;;34.33;21.65;;;;;;;10.28;100.00;66866.19;5081487;28;20040;-57
2022/10/29 06:19:33;;;;;;;33.47;19.70;;;;;;;10.37;100.00;66185.59;5072013;28;20028;-58
2022/10/29 06:21:59;;;;;;;30.40;19.63;;;;;;;10.45;100.00;65848.94;5080479;28;20044;-58
2022/10/29 06:24:24;;;;;;;40.47;23.00;;;;;;;10.49;100.00;65507.50;5084960;28;20031;-59
2022/10/29 06:26:52;;;;;;;51.70;22.95;;;;;;;10.54;100.00;65167.06;5082627;28;20756;-59
2022/10/29 06:29:17;;;;;;;37.10;27.98;;;;;;;10.58;100.00;64826.66;5087424;28;20500;-58
2022/10/29 06:31:42;;;;;;;36.60;23.52;;;;;;;10.61;100.00;64829.75;5088618;28;20055;-59
2022/10/29 06:34:08;;;;;;;40.75;24.05;;;;;;;10.64;100.00;64487.22;5078101;28;20070;-59
2022/10/29 06:36:33;;;;;;;57.00;27.70;;;;;;;10.67;100.00;64145.22;5072584;28;20040;-59
2022/10/29 06:38:58;;;;;;;35.55;24.38;;;;;;;10.71;100.00;63804.22;5073647;28;20090;-58
2022/10/29 06:41:26;;;;;;;39.15;26.58;;;;;;;10.77;100.00;63120.16;5072276;28;20032;-58
2022/10/29 06:43:52;;;;;;;54.92;30.17;;;;;;;10.92;100.00;62789.13;5071752;28;20021;-59
2022/10/29 06:46:17;;;;;;;52.08;31.60;;;;;;;11.00;100.00;62452.00;5078610;28;20040;-58
2022/10/29 06:48:43;;;;;;;56.90;32.00;;;;;;;11.08;100.00;62114.34;5090119;28;20016;-59
2022/10/29 06:51:08;;;;;;;54.95;31.20;;;;;;;11.15;100.00;61430.47;5089261;28;20480;-58
2022/10/29 06:53:33;;;;;;;57.72;34.17;;;;;;;11.21;100.00;61436.34;5088526;28;20039;-59
2022/10/29 06:55:59;;;;;;;59.72;33.00;;;;;;;11.27;100.00;61097.06;5077493;28;20024;-59
2022/10/29 06:58:24;;;;;;;59.85;32.03;;;;;;;11.38;100.00;60762.56;5076416;28;20044;-60
2022/10/29 07:00:49;;;;;;;51.80;31.63;;;;;;;11.31;100.00;60410.19;5084321;28;20028;-59
2022/10/29 07:03:17;;;;;;;55.28;33.75;;;;;;;11.54;100.00;60086.56;5082241;28;20431;-59
2022/10/29 07:05:42;;;;;;;56.15;31.10;;;;;;;11.64;100.00;59750.41;5077194;28;20520;-59
2022/10/29 07:08:08;;;;;;;74.57;34.67;;;;;;;11.73;100.00;59414.16;5066980;28;20040;-59
2022/10/29 07:10:34;;;;;;;73.25;32.42;;;;;;;11.82;100.00;59076.91;5068897;28;20028;-59
2022/10/29 07:13:00;;;;;;;54.65;30.83;;;;;;;11.89;100.00;59083.47;5066964;28;20132;-60
2022/10/29 07:15:26;;;;;;;71.80;33.10;;;;;;;11.97;100.00;59090.53;5076940;28;20020;-59
2022/10/29 07:18:00;;;;;;;61.90;31.98;;;;;;;12.10;100.00;60138.72;5087489;28;20701;-59
2022/10/29 07:20:27;;;;;;;52.72;27.05;;;;;;;12.22;100.00;63953.06;5089040;28;20036;-59
2022/10/29 07:22:52;;;;;;;61.88;32.92;;;;;;;12.33;100.00;60505.91;5087635;28;20032;-59
2022/10/29 07:25:18;;;;;;;57.47;30.45;;;;;;;12.48;100.00;58790.94;5075611;28;20057;-59
2022/10/29 07:27:43;;;;;;;54.22;30.10;;;;;;;12.18;100.00;59455.28;5092052;28;20075;-59
2022/10/29 07:30:09;;;;;;;70.45;33.08;;;;;;;12.65;100.00;58115.44;5093016;28;20016;-59
2022/10/29 07:32:35;;;;;;;50.60;30.65;;;;;;;12.69;100.00;57082.25;5091920;28;20044;-59
2022/10/29 07:35:00;;;;;;;60.88;31.70;;;;;;;12.80;100.00;56054.94;5087396;28;20027;-59
2022/10/29 07:37:26;;;;;;;59.92;30.73;;;;;;;12.89;100.00;55716.44;5071193;28;20044;-59
2022/10/29 07:39:51;;;;;;;59.25;30.50;;;;;;;12.97;100.00;55378.34;5078579;28;20026;-59
2022/10/29 07:42:16;;;;;;;65.68;30.83;;;;;;;13.05;100.00;55038.84;5091551;28;20462;-59
2022/10/29 07:44:42;;;;;;;56.90;31.05;;;;;;;13.11;100.00;54698.47;5092908;28;20372;-59
2022/10/29 07:47:07;;;;;;;56.80;30.40;;;;;;;13.29;100.00;54022.66;5089963;28;20040;-59
2022/10/29 07:49:33;;;;;;;44.70;26.50;;;;;;;13.39;100.00;53339.03;5090907;28;20092;-59
2022/10/29 07:51:58;;;;;;;61.67;28.42;;;;;;;13.45;100.00;53344.53;5070949;28;20033;-59
2022/10/29 07:54:23;;;;;;;52.40;29.08;;;;;;;13.53;100.00;53005.13;5072965;28;20036;-59
2022/10/29 07:56:51;;;;;;;55.85;28.42;;;;;;;13.62;100.00;52666.94;5071532;28;20033;-59
2022/10/29 07:59:18;;;;;;;55.53;28.02;;;;;;;13.78;100.00;51987.88;5078947;28;20027;-59
2022/10/29 08:01:43;;;;;;;53.58;28.30;;;;;;;13.89;100.00;51651.09;5091487;28;20085;-59
2022/10/29 08:04:08;;;;;;;52.25;26.73;;;;;;;13.96;100.00;51311.00;5092571;28;20430;-59
2022/10/29 08:06:34;;;;;;;47.13;26.00;;;;;;;14.01;100.00;51314.25;5091088;28;20043;-59
2022/10/29 08:08:59;;;;;;;44.63;27.30;;;;;;;14.15;100.00;50979.69;5088846;28;20384;-59
2022/10/29 08:11:24;;;;;;;45.90;25.40;;;;;;;14.17;100.00;50981.31;5090787;28;20024;-60
2022/10/29 08:13:50;;;;;;;46.45;24.23;;;;;;;14.31;100.00;50300.31;5092654;28;20016;-60
2022/10/29 08:16:15;;;;;;;32.03;22.88;;;;;;;14.46;100.00;49965.84;5090958;28;20020;-59
2022/10/29 08:18:40;;;;;;;42.92;23.42;;;;;;;14.56;100.00;49627.72;5091298;28;20024;-60
2022/10/29 08:21:06;;;;;;;47.53;26.00;;;;;;;14.71;100.00;49293.03;5088081;28;20078;-59
2022/10/29 08:23:31;;;;;;;42.63;22.88;;;;;;;15.06;100.00;48626.63;5070680;28;20041;-60
2022/10/29 08:25:57;;;;;;;36.45;20.60;;;;;;;15.32;100.00;48299.44;5072313;28;20109;-59
2022/10/29 08:28:23;;;;;;;30.80;20.85;;;;;;;15.55;100.00;47277.81;5071891;28;20043;-60
2022/10/29 08:30:49;;;;;;;32.92;20.25;;;;;;;15.75;100.00;46599.13;5091998;28;20031;-60
2022/10/29 08:33:14;;;;;;;39.67;19.33;;;;;;;15.75;100.00;46599.13;5070398;28;20040;-60
2022/10/29 08:35:39;;;;;;;40.53;18.63;;;;;;;-146.58;100.00;69501.63;5076006;28;20365;-60
2022/10/29 08:38:05;;;;;;;31.13;18.88;;;;;;;-146.58;100.00;69501.63;5073137;28;20044;-59
2022/10/29 08:40:53;;;;;;;36.78;18.33;;;;;;;-146.58;100.00;36164.50;5092362;28;20059;-60
2022/10/29 08:43:18;;;;;;;34.53;18.77;;;;;;;16.26;100.00;53573.56;5077340;28;20055;-60
2022/10/29 08:45:45;;;;;;;42.20;18.02;;;;;;;16.26;100.00;58090.19;5084726;28;20115;-59
2022/10/29 08:48:34;;;;;;;28.75;18.40;;;;;;;16.34;100.00;63316.16;5070036;28;20045;-59
2022/10/29 08:51:07;;;;;;;32.92;19.45;;;;;;;16.45;100.00;66810.72;5071206;28;20040;-59
2022/10/29 08:53:40;;;;;;;31.27;18.27;;;;;;;16.57;100.00;71007.97;5084130;28;20399;-60
2022/10/29 08:56:14;;;;;;;30.95;17.02;;;;;;;16.72;100.00;73817.50;5082202;28;20036;-59
2022/10/29 08:58:51;;;;;;;43.08;19.27;;;;;;;16.74;100.00;79062.44;5071012;28;20101;-60
2022/10/29 09:01:19;;;;;;;30.27;17.80;;;;;;;16.94;100.00;86440.66;5071000;28;20024;-59
2022/10/29 09:03:44;;;;;;;25.63;17.25;;;;;;;17.17;100.00;91382.06;5071358;28;20024;-60
2022/10/29 09:06:32;;;;;;;38.00;15.35;;;;;;;17.44;100.00;106199.06;5070890;28;20365;-60
2022/10/29 09:09:16;;;;;;;;;;;;;;;17.55;100.00;146604.44;5079550;28;20043;-59
2022/10/29 09:11:58;;;;;;;38.47;17.05;;;;;;;17.68;100.00;165191.56;5088293;28;19931;-60
2022/10/29 09:14:48;;;;;;;28.85;14.48;;;;;;;17.56;100.00;165159.00;5091230;28;20024;-59
2022/10/29 09:17:28;;;;;;;35.17;14.73;;;;;;;17.53;100.00;165150.88;5069760;28;20068;-60
2022/10/29 09:20:13;;;;;;;25.63;14.63;;;;;;;17.56;100.00;165159.00;5070900;28;20056;-59
2022/10/29 09:23:15;;;;;;;24.42;16.35;;;;;;;17.71;100.00;165199.66;5069673;28;20045;-59
2022/10/29 09:25:52;;;;;;;30.05;14.55;;;;;;;18.02;100.00;165281.06;5071049;28;20056;-59
2022/10/29 09:28:23;;;;;;;26.33;13.93;;;;;;;18.42;100.00;165384.09;5068976;28;20121;-60
2022/10/29 09:31:15;;;;;;;32.50;13.55;;;;;;;-146.58;100.00;69501.63;5071194;28;20025;-60
2022/10/29 09:33:46;;;;;;;17.95;11.98;;;;;;;-146.58;100.00;69501.63;5069187;28;20047;-60
2022/10/29 09:36:18;;;;;;;28.17;16.42;;;;;;;19.26;100.00;165606.56;5070786;28;20021;-60
2022/10/29 09:38:50;;;;;;;28.42;14.77;;;;;;;19.79;100.00;165744.97;5082952;28;20048;-60
2022/10/29 09:41:15;;;;;;;19.80;13.32;;;;;;;20.19;100.00;165850.88;5068996;28;20028;-59
2022/10/29 09:44:00;;;;;;;26.80;13.60;;;;;;;-146.58;100.00;69501.63;5078759;28;20020;-60
2022/10/29 09:46:52;;;;;;;23.83;11.65;;;;;;;-146.58;100.00;69501.63;5089101;28;20028;-60
2022/10/29 09:49:56;;;;;;;25.67;11.98;;;;;;;-146.58;100.00;69501.63;5077180;28;20024;-60
2022/10/29 09:52:25;;;;;;;22.05;10.38;;;;;;;-146.58;100.00;69501.63;5089155;28;20521;-60
2022/10/29 09:54:52;;;;;;;20.58;11.80;;;;;;;-146.58;100.00;69501.63;5090922;28;20030;-60
2022/10/29 09:57:22;;;;;;;26.73;9.18;;;;;;;-146.58;100.00;69501.63;5081977;28;20098;-60
2022/10/29 09:59:54;;;;;;;28.42;11.07;;;;;;;-146.58;100.00;69501.63;5070504;28;20029;-60
2022/10/29 10:02:56;;;;;;;20.35;9.43;;;;;;;-146.58;100.00;69501.63;5068754;28;20115;-60
2022/10/29 10:05:30;;;;;;;21.88;11.48;;;;;;;-146.58;100.00;69501.63;5069999;28;20028;-60
2022/10/29 10:08:09;;;;;;;29.08;11.30;;;;;;;-146.58;100.00;69501.63;5079530;28;20079;-57
2022/10/29 10:10:53;;;;;;;23.65;10.15;;;;;;;-146.58;100.00;69501.63;5070836;28;20028;-57
2022/10/29 10:13:24;;;;;;;18.40;11.50;;;;;;;-146.58;100.00;69501.63;5068758;28;20072;-60
2022/10/29 10:15:53;;;;;;;21.33;10.07;;;;;;;19.81;100.00;165750.41;5070938;28;20361;-60
2022/10/29 10:18:46;;;;;;;23.85;11.70;;;;;;;19.73;100.00;165728.69;5074288;28;20046;-60
2022/10/29 10:21:22;;;;;;;40.83;11.40;;;;;;;19.58;100.00;165690.69;5085723;28;20039;-60
2022/10/29 10:23:52;;;;;;;26.05;11.98;;;;;;;19.38;100.00;165636.44;5071793;28;20130;-60
2022/10/29 10:26:44;;;;;;;18.95;9.90;;;;;;;19.19;100.00;165587.56;5069001;28;20025;-59
2022/10/29 10:29:20;;;;;;;23.17;9.98;;;;;;;19.10;100.00;165563.19;5081048;28;20367;-60
2022/10/29 10:31:49;;;;;;;18.15;12.00;;;;;;;19.08;100.00;165559.09;5089236;28;20047;-60
2022/10/29 10:34:23;;;;;;;30.45;9.55;;;;;;;18.95;100.00;165525.16;5083139;28;20025;-60
2022/10/29 10:37:01;;;;;;;25.13;10.43;;;;;;;19.03;100.00;165546.88;5069240;28;20125;-60
2022/10/29 10:39:29;;;;;;;27.67;11.77;;;;;;;18.97;100.00;165530.59;5070598;28;20087;-60
2022/10/29 10:42:01;;;;;;;17.48;9.40;;;;;;;18.88;100.00;165506.13;5070584;28;20488;-60
2022/10/29 10:44:27;;;;;;;25.08;11.38;;;;;;;18.87;100.00;165503.47;5090589;28;20081;-60
2022/10/29 10:46:54;;;;;;;26.20;13.05;;;;;;;18.91;100.00;165514.28;5089206;28;20032;-60
2022/10/29 10:49:36;;;;;;;23.67;12.55;;;;;;;18.95;100.00;165525.16;5072174;28;20060;-60
2022/10/29 10:52:05;;;;;;;24.80;11.30;;;;;;;18.93;100.00;165518.38;5068905;28;20040;-60
2022/10/29 10:54:35;;;;;;;26.90;10.75;;;;;;;18.97;100.00;165529.28;5078672;28;20036;-60
2022/10/29 10:57:18;;;;;;;21.55;11.05;;;;;;;19.06;100.00;165552.31;5088621;28;20040;-60
2022/10/29 10:59:59;;;;;;;21.08;12.10;;;;;;;19.11;100.00;165565.84;5090730;28;20391;-60
2022/10/29 11:02:36;;;;;;;17.63;9.93;;;;;;;19.12;100.00;165568.59;5092462;28;20046;-60
2022/10/29 11:05:15;;;;;;;18.52;10.68;;;;;;;19.22;100.00;165594.34;5094269;28;20035;-60
2022/10/29 11:07:46;;;;;;;19.67;10.60;;;;;;;19.24;100.00;165601.16;5081604;28;20128;-60
2022/10/29 11:10:14;;;;;;;16.40;9.38;;;;;;;19.28;100.00;165612.00;5073550;28;20028;-60
2022/10/29 11:12:45;;;;;;;27.65;11.85;;;;;;;19.25;100.00;165603.84;5080976;28;20040;-60
2022/10/29 11:15:32;;;;;;;31.38;13.55;;;;;;;19.18;100.00;165584.84;5094067;28;20032;-60
2022/10/29 11:18:14;;;;;;;40.45;12.40;;;;;;;19.21;100.00;165593.00;5079358;28;20511;-60